FFT1571 KDEN-KSAN
Flight info
| Callsign | FFT1571 |
|---|---|
| Flight time | 1h 54m |
| Altitude | 38000 |
| Route | BAYLR6 TEHRU PLNDL Q86 TTRUE LUCKI1 |
| Aircraft | A320/M-SDE3FGHIRWY/LB1 |
Departure
| Time | 2026-05-07 20:52 |
|---|---|
| Airport | Denver International Airport (KDEN) |
Arrival
| Time | 2026-05-07 22:46 |
|---|---|
| Airport | San Diego International Airport (KSAN) |
| Time | Latitude | Longitude | Altitude | Speed | Heading |
|---|---|---|---|---|---|
| 2026-05-07 20:23 | 39.85468 | -104.66860 | 5384 ft | 0 kts | 180° |
| 2026-05-07 20:38 | 39.85474 | -104.66860 | 5384 ft | 4 kts | 180° |
| 2026-05-07 20:39 | 39.85501 | -104.66860 | 5383 ft | 4 kts | 180° |
| 2026-05-07 20:39 | 39.85518 | -104.66860 | 5383 ft | 0 kts | 180° |
| 2026-05-07 20:45 | 39.85516 | -104.66865 | 5383 ft | 1 kts | 227° |
| 2026-05-07 20:46 | 39.85527 | -104.66890 | 5382 ft | 7 kts | 300° |
| 2026-05-07 20:46 | 39.85560 | -104.66964 | 5381 ft | 12 kts | 300° |
| 2026-05-07 20:46 | 39.85589 | -104.67085 | 5382 ft | 16 kts | 272° |
| 2026-05-07 20:46 | 39.85590 | -104.67246 | 5382 ft | 18 kts | 270° |
| 2026-05-07 20:47 | 39.85592 | -104.67411 | 5382 ft | 18 kts | 271° |
| 2026-05-07 20:47 | 39.85592 | -104.67578 | 5382 ft | 19 kts | 270° |
| 2026-05-07 20:47 | 39.85594 | -104.67747 | 5382 ft | 19 kts | 271° |
| 2026-05-07 20:47 | 39.85596 | -104.67916 | 5382 ft | 19 kts | 271° |
| 2026-05-07 20:48 | 39.85599 | -104.68086 | 5382 ft | 19 kts | 271° |
| 2026-05-07 20:48 | 39.85597 | -104.68259 | 5381 ft | 19 kts | 269° |
| 2026-05-07 20:48 | 39.85597 | -104.68445 | 5372 ft | 20 kts | 271° |
| 2026-05-07 20:48 | 39.85530 | -104.68513 | 5375 ft | 13 kts | 178° |
| 2026-05-07 20:49 | 39.85434 | -104.68519 | 5375 ft | 15 kts | 182° |
| 2026-05-07 20:49 | 39.85319 | -104.68518 | 5376 ft | 17 kts | 179° |
| 2026-05-07 20:49 | 39.85222 | -104.68530 | 5377 ft | 13 kts | 220° |
| 2026-05-07 20:49 | 39.85203 | -104.68660 | 5371 ft | 17 kts | 269° |
| 2026-05-07 20:50 | 39.85200 | -104.68839 | 5363 ft | 22 kts | 269° |
| 2026-05-07 20:50 | 39.85196 | -104.69058 | 5353 ft | 26 kts | 269° |
| 2026-05-07 20:50 | 39.85197 | -104.69308 | 5342 ft | 29 kts | 274° |
| 2026-05-07 20:50 | 39.85202 | -104.69505 | 5341 ft | 18 kts | 271° |
| 2026-05-07 20:51 | 39.85203 | -104.69631 | 5337 ft | 7 kts | 276° |
| 2026-05-07 20:51 | 39.85249 | -104.69655 | 5336 ft | 9 kts | 359° |
| 2026-05-07 20:51 | 39.85446 | -104.69657 | 5338 ft | 61 kts | 359° |
| 2026-05-07 20:51 | 39.86096 | -104.69651 | 5338 ft | 123 kts | 1° |
| 2026-05-07 20:52 | 39.87122 | -104.69641 | 5340 ft | 170 kts | 1° |
| 2026-05-07 20:52 | 39.88418 | -104.69636 | 5544 ft | 193 kts | 352° |
| 2026-05-07 20:52 | 39.89678 | -104.70013 | 6188 ft | 183 kts | 317° |
| 2026-05-07 20:52 | 39.90295 | -104.71350 | 6850 ft | 175 kts | 270° |
| 2026-05-07 20:53 | 39.89942 | -104.72869 | 7282 ft | 187 kts | 240° |
| 2026-05-07 20:53 | 39.89013 | -104.74209 | 7404 ft | 213 kts | 227° |
| 2026-05-07 20:53 | 39.87903 | -104.75656 | 7582 ft | 239 kts | 229° |
| 2026-05-07 20:53 | 39.86718 | -104.77289 | 7917 ft | 262 kts | 230° |
| 2026-05-07 20:54 | 39.85455 | -104.79083 | 8501 ft | 275 kts | 230° |
| 2026-05-07 20:54 | 39.84156 | -104.80944 | 9192 ft | 281 kts | 230° |
| 2026-05-07 20:54 | 39.82822 | -104.82855 | 9819 ft | 289 kts | 230° |
| 2026-05-07 20:54 | 39.81461 | -104.84798 | 9981 ft | 291 kts | 230° |
| 2026-05-07 20:55 | 39.80030 | -104.86843 | 10016 ft | 315 kts | 230° |
| 2026-05-07 20:55 | 39.78532 | -104.88986 | 10027 ft | 324 kts | 231° |
| 2026-05-07 20:55 | 39.77338 | -104.91426 | 10078 ft | 320 kts | 252° |
| 2026-05-07 20:55 | 39.76696 | -104.94221 | 10752 ft | 324 kts | 255° |
| 2026-05-07 20:56 | 39.76074 | -104.97046 | 11547 ft | 328 kts | 256° |
| 2026-05-07 20:56 | 39.75445 | -104.99916 | 12296 ft | 331 kts | 256° |
| 2026-05-07 20:56 | 39.74780 | -105.02807 | 13017 ft | 336 kts | 251° |
| 2026-05-07 20:56 | 39.73878 | -105.05628 | 13754 ft | 340 kts | 249° |
| 2026-05-07 20:57 | 39.72949 | -105.08466 | 14491 ft | 342 kts | 249° |
| 2026-05-07 20:57 | 39.72012 | -105.11326 | 15184 ft | 345 kts | 249° |
| 2026-05-07 20:57 | 39.71065 | -105.14212 | 15858 ft | 348 kts | 249° |
| 2026-05-07 20:57 | 39.70110 | -105.17110 | 16513 ft | 350 kts | 249° |
| 2026-05-07 20:58 | 39.69142 | -105.20036 | 17172 ft | 353 kts | 250° |
| 2026-05-07 20:58 | 39.68176 | -105.22977 | 17813 ft | 355 kts | 250° |
| 2026-05-07 20:58 | 39.67206 | -105.25941 | 18428 ft | 358 kts | 250° |
| 2026-05-07 20:58 | 39.66227 | -105.28932 | 19038 ft | 361 kts | 250° |
| 2026-05-07 20:59 | 39.65240 | -105.31939 | 19661 ft | 363 kts | 250° |
| 2026-05-07 20:59 | 39.64241 | -105.34963 | 20262 ft | 366 kts | 250° |
| 2026-05-07 20:59 | 39.63250 | -105.37961 | 20854 ft | 368 kts | 250° |
| 2026-05-07 20:59 | 39.62241 | -105.41015 | 21443 ft | 370 kts | 250° |
| 2026-05-07 21:00 | 39.61229 | -105.44084 | 21991 ft | 371 kts | 250° |
| 2026-05-07 21:00 | 39.60207 | -105.47157 | 22451 ft | 371 kts | 250° |
| 2026-05-07 21:00 | 39.59186 | -105.50243 | 22895 ft | 374 kts | 250° |
| 2026-05-07 21:00 | 39.58159 | -105.53352 | 23402 ft | 376 kts | 250° |
| 2026-05-07 21:01 | 39.57121 | -105.56484 | 23875 ft | 378 kts | 250° |
| 2026-05-07 21:01 | 39.56075 | -105.59629 | 24317 ft | 380 kts | 250° |
| 2026-05-07 21:01 | 39.55031 | -105.62794 | 24794 ft | 382 kts | 251° |
| 2026-05-07 21:01 | 39.54067 | -105.66009 | 25259 ft | 382 kts | 253° |
| 2026-05-07 21:02 | 39.53170 | -105.69251 | 25721 ft | 384 kts | 255° |
| 2026-05-07 21:02 | 39.52298 | -105.72533 | 26153 ft | 385 kts | 255° |
| 2026-05-07 21:02 | 39.51425 | -105.75832 | 26520 ft | 389 kts | 256° |
| 2026-05-07 21:02 | 39.50536 | -105.79153 | 26894 ft | 392 kts | 255° |
| 2026-05-07 21:03 | 39.49625 | -105.82496 | 27277 ft | 394 kts | 255° |
| 2026-05-07 21:03 | 39.48698 | -105.85843 | 27661 ft | 396 kts | 255° |
| 2026-05-07 21:03 | 39.47759 | -105.89205 | 28013 ft | 398 kts | 255° |
| 2026-05-07 21:03 | 39.46814 | -105.92573 | 28373 ft | 399 kts | 255° |
| 2026-05-07 21:04 | 39.45860 | -105.95961 | 28707 ft | 402 kts | 255° |
| 2026-05-07 21:04 | 39.44916 | -105.99326 | 29049 ft | 404 kts | 255° |
| 2026-05-07 21:04 | 39.43958 | -106.02748 | 29421 ft | 406 kts | 255° |
| 2026-05-07 21:04 | 39.42995 | -106.06190 | 29735 ft | 408 kts | 255° |
| 2026-05-07 21:05 | 39.42024 | -106.09647 | 30027 ft | 410 kts | 255° |
| 2026-05-07 21:05 | 39.41047 | -106.13123 | 30319 ft | 413 kts | 255° |
| 2026-05-07 21:05 | 39.40061 | -106.16621 | 30655 ft | 415 kts | 255° |
| 2026-05-07 21:05 | 39.39070 | -106.20131 | 30983 ft | 416 kts | 255° |
| 2026-05-07 21:06 | 39.38070 | -106.23669 | 31322 ft | 421 kts | 255° |
| 2026-05-07 21:06 | 39.37067 | -106.27218 | 31623 ft | 421 kts | 255° |
| 2026-05-07 21:06 | 39.36059 | -106.30777 | 31946 ft | 421 kts | 255° |
| 2026-05-07 21:06 | 39.35050 | -106.34328 | 32331 ft | 420 kts | 255° |
| 2026-05-07 21:07 | 39.34048 | -106.37867 | 32688 ft | 419 kts | 256° |
| 2026-05-07 21:07 | 39.33046 | -106.41394 | 33061 ft | 417 kts | 256° |
| 2026-05-07 21:07 | 39.32046 | -106.44904 | 33379 ft | 416 kts | 256° |
| 2026-05-07 21:07 | 39.31045 | -106.48407 | 33702 ft | 416 kts | 256° |
| 2026-05-07 21:08 | 39.30043 | -106.51911 | 34053 ft | 415 kts | 256° |
| 2026-05-07 21:08 | 39.29045 | -106.55403 | 34397 ft | 414 kts | 256° |
| 2026-05-07 21:08 | 39.28049 | -106.58893 | 34716 ft | 414 kts | 256° |
| 2026-05-07 21:08 | 39.27052 | -106.62375 | 35019 ft | 414 kts | 255° |
| 2026-05-07 21:09 | 39.26064 | -106.65811 | 35322 ft | 413 kts | 255° |
| 2026-05-07 21:09 | 39.25061 | -106.69285 | 35593 ft | 414 kts | 254° |
| 2026-05-07 21:09 | 39.23781 | -106.72639 | 35857 ft | 421 kts | 244° |
| 2026-05-07 21:09 | 39.22057 | -106.75719 | 36102 ft | 427 kts | 238° |
| 2026-05-07 21:10 | 39.20215 | -106.78720 | 36341 ft | 427 kts | 238° |
| 2026-05-07 21:10 | 39.18378 | -106.81719 | 36609 ft | 426 kts | 238° |
| 2026-05-07 21:10 | 39.16543 | -106.84723 | 36860 ft | 426 kts | 238° |
| 2026-05-07 21:10 | 39.14713 | -106.87719 | 37083 ft | 426 kts | 237° |
| 2026-05-07 21:11 | 39.12879 | -106.90715 | 37335 ft | 425 kts | 237° |
| 2026-05-07 21:11 | 39.11049 | -106.93700 | 37534 ft | 425 kts | 237° |
| 2026-05-07 21:11 | 39.10429 | -106.94711 | 37589 ft | 425 kts | 237° |
| 2026-05-07 21:12 | 39.09466 | -106.96238 | 37776 ft | 421 kts | 236° |
| 2026-05-07 21:12 | 39.07566 | -106.99068 | 38150 ft | 416 kts | 236° |
| 2026-05-07 21:12 | 39.03966 | -107.04964 | 38233 ft | 421 kts | 238° |
| 2026-05-07 21:13 | 39.00424 | -107.10967 | 38227 ft | 422 kts | 238° |
| 2026-05-07 21:13 | 38.96811 | -107.16914 | 38232 ft | 423 kts | 237° |
| 2026-05-07 21:14 | 38.93139 | -107.22817 | 38228 ft | 423 kts | 237° |
| 2026-05-07 21:14 | 38.89461 | -107.28715 | 38230 ft | 423 kts | 237° |
| 2026-05-07 21:15 | 38.85797 | -107.34616 | 38227 ft | 423 kts | 237° |
| 2026-05-07 21:15 | 38.82135 | -107.40519 | 38234 ft | 423 kts | 237° |
| 2026-05-07 21:16 | 38.78484 | -107.46375 | 38227 ft | 424 kts | 236° |
| 2026-05-07 21:16 | 38.74802 | -107.52263 | 38218 ft | 423 kts | 237° |
| 2026-05-07 21:17 | 38.71123 | -107.58148 | 38211 ft | 423 kts | 236° |
| 2026-05-07 21:17 | 38.67440 | -107.64028 | 38207 ft | 423 kts | 236° |
| 2026-05-07 21:18 | 38.63754 | -107.69905 | 38204 ft | 423 kts | 236° |
| 2026-05-07 21:18 | 38.60069 | -107.75762 | 38204 ft | 423 kts | 236° |
| 2026-05-07 21:19 | 38.56385 | -107.81622 | 38194 ft | 422 kts | 236° |
| 2026-05-07 21:19 | 38.52704 | -107.87471 | 38192 ft | 422 kts | 236° |
| 2026-05-07 21:20 | 38.49039 | -107.93274 | 38190 ft | 422 kts | 236° |
| 2026-05-07 21:20 | 38.45347 | -107.99101 | 38188 ft | 422 kts | 236° |
| 2026-05-07 21:21 | 38.41647 | -108.04923 | 38169 ft | 424 kts | 233° |
| 2026-05-07 21:21 | 38.39772 | -108.07872 | 38031 ft | 430 kts | 234° |
| 2026-05-07 21:21 | 38.37912 | -108.10795 | 38167 ft | 421 kts | 236° |
| 2026-05-07 21:22 | 38.34214 | -108.16611 | 38192 ft | 423 kts | 235° |
| 2026-05-07 21:22 | 38.30502 | -108.22434 | 38200 ft | 422 kts | 235° |
| 2026-05-07 21:23 | 38.26779 | -108.28247 | 38206 ft | 424 kts | 235° |
| 2026-05-07 21:23 | 38.23678 | -108.33085 | 38211 ft | 424 kts | 235° |
| 2026-05-07 21:24 | 38.19962 | -108.38899 | 38210 ft | 424 kts | 235° |
| 2026-05-07 21:24 | 38.15629 | -108.45652 | 38211 ft | 424 kts | 235° |
| 2026-05-07 21:25 | 38.11892 | -108.51463 | 38209 ft | 425 kts | 235° |
| 2026-05-07 21:25 | 38.08755 | -108.56330 | 38215 ft | 425 kts | 235° |
| 2026-05-07 21:26 | 38.05005 | -108.62129 | 38212 ft | 425 kts | 235° |
| 2026-05-07 21:26 | 38.01250 | -108.67932 | 38215 ft | 426 kts | 235° |
| 2026-05-07 21:27 | 37.97511 | -108.73701 | 38213 ft | 426 kts | 234° |
| 2026-05-07 21:27 | 37.93747 | -108.79518 | 38210 ft | 427 kts | 234° |
| 2026-05-07 21:28 | 37.89970 | -108.85328 | 38209 ft | 427 kts | 234° |
| 2026-05-07 21:28 | 37.86183 | -108.91143 | 38208 ft | 428 kts | 234° |
| 2026-05-07 21:29 | 37.82387 | -108.96956 | 38207 ft | 429 kts | 234° |
| 2026-05-07 21:29 | 37.78582 | -109.02769 | 38206 ft | 429 kts | 234° |
| 2026-05-07 21:30 | 37.74773 | -109.08592 | 38206 ft | 430 kts | 234° |
| 2026-05-07 21:30 | 37.74153 | -109.09540 | 38207 ft | 430 kts | 234° |
| 2026-05-07 21:31 | 37.71402 | -109.13758 | 38206 ft | 431 kts | 234° |
| 2026-05-07 21:31 | 37.67572 | -109.19579 | 38202 ft | 431 kts | 233° |
| 2026-05-07 21:32 | 37.63730 | -109.25397 | 38197 ft | 432 kts | 234° |
| 2026-05-07 21:32 | 37.59887 | -109.31229 | 38193 ft | 432 kts | 234° |
| 2026-05-07 21:33 | 37.56038 | -109.37057 | 38188 ft | 433 kts | 233° |
| 2026-05-07 21:33 | 37.52176 | -109.42877 | 38208 ft | 433 kts | 233° |
| 2026-05-07 21:34 | 37.48303 | -109.48714 | 38192 ft | 434 kts | 233° |
| 2026-05-07 21:34 | 37.44434 | -109.54548 | 38180 ft | 434 kts | 233° |
| 2026-05-07 21:35 | 37.40564 | -109.60376 | 38174 ft | 434 kts | 233° |
| 2026-05-07 21:35 | 37.36708 | -109.66173 | 38171 ft | 435 kts | 233° |
| 2026-05-07 21:36 | 37.32819 | -109.71988 | 38168 ft | 435 kts | 233° |
| 2026-05-07 21:36 | 37.28922 | -109.77803 | 38167 ft | 435 kts | 233° |
| 2026-05-07 21:37 | 37.25019 | -109.83619 | 38164 ft | 435 kts | 233° |
| 2026-05-07 21:37 | 37.21123 | -109.89436 | 38161 ft | 435 kts | 233° |
| 2026-05-07 21:38 | 37.17222 | -109.95244 | 38155 ft | 435 kts | 233° |
| 2026-05-07 21:38 | 37.13317 | -110.01053 | 38155 ft | 436 kts | 233° |
| 2026-05-07 21:39 | 37.09405 | -110.06855 | 38133 ft | 437 kts | 233° |
| 2026-05-07 21:39 | 37.05470 | -110.12673 | 38125 ft | 438 kts | 232° |
| 2026-05-07 21:40 | 37.01525 | -110.18497 | 38121 ft | 439 kts | 232° |
| 2026-05-07 21:40 | 36.97577 | -110.24317 | 38122 ft | 439 kts | 232° |
| 2026-05-07 21:41 | 36.93610 | -110.30139 | 38125 ft | 440 kts | 232° |
| 2026-05-07 21:41 | 36.89641 | -110.35964 | 38128 ft | 440 kts | 232° |
| 2026-05-07 21:42 | 36.85673 | -110.41791 | 38128 ft | 440 kts | 232° |
| 2026-05-07 21:42 | 36.81702 | -110.47612 | 38131 ft | 440 kts | 232° |
| 2026-05-07 21:43 | 36.77750 | -110.53384 | 38130 ft | 440 kts | 232° |
| 2026-05-07 21:43 | 36.73772 | -110.59185 | 38149 ft | 440 kts | 232° |
| 2026-05-07 21:44 | 36.69792 | -110.64984 | 38150 ft | 440 kts | 232° |
| 2026-05-07 21:44 | 36.65802 | -110.70775 | 38169 ft | 441 kts | 231° |
| 2026-05-07 21:45 | 36.61807 | -110.76573 | 38159 ft | 441 kts | 231° |
| 2026-05-07 21:45 | 36.57814 | -110.82368 | 38147 ft | 441 kts | 232° |
| 2026-05-07 21:46 | 36.53815 | -110.88160 | 38137 ft | 442 kts | 231° |
| 2026-05-07 21:46 | 36.49797 | -110.93954 | 38135 ft | 442 kts | 231° |
| 2026-05-07 21:47 | 36.47111 | -110.97824 | 38133 ft | 442 kts | 231° |
| 2026-05-07 21:47 | 36.46501 | -110.98700 | 38134 ft | 443 kts | 231° |
| 2026-05-07 21:48 | 36.42489 | -111.04472 | 38138 ft | 443 kts | 231° |
| 2026-05-07 21:48 | 36.38456 | -111.10273 | 38148 ft | 444 kts | 231° |
| 2026-05-07 21:49 | 36.34418 | -111.16061 | 38138 ft | 444 kts | 231° |
| 2026-05-07 21:49 | 36.30398 | -111.21815 | 38141 ft | 444 kts | 231° |
| 2026-05-07 21:50 | 36.26345 | -111.27614 | 38139 ft | 445 kts | 231° |
| 2026-05-07 21:50 | 36.22284 | -111.33408 | 38147 ft | 446 kts | 231° |
| 2026-05-07 21:51 | 36.18209 | -111.39200 | 38144 ft | 446 kts | 231° |
| 2026-05-07 21:51 | 36.14129 | -111.45004 | 38152 ft | 447 kts | 231° |
| 2026-05-07 21:52 | 36.10044 | -111.50805 | 38158 ft | 447 kts | 231° |
| 2026-05-07 21:52 | 36.05951 | -111.56609 | 38169 ft | 448 kts | 231° |
| 2026-05-07 21:53 | 36.01841 | -111.62416 | 38182 ft | 449 kts | 231° |
| 2026-05-07 21:53 | 35.97727 | -111.68226 | 38191 ft | 449 kts | 230° |
| 2026-05-07 21:54 | 35.93612 | -111.74035 | 38196 ft | 449 kts | 230° |
| 2026-05-07 21:54 | 35.89523 | -111.79792 | 38204 ft | 449 kts | 230° |
| 2026-05-07 21:55 | 35.85360 | -111.85630 | 38205 ft | 450 kts | 231° |
| 2026-05-07 21:55 | 35.81944 | -111.91950 | 38217 ft | 446 kts | 243° |
| 2026-05-07 21:56 | 35.78940 | -111.98635 | 38218 ft | 446 kts | 243° |
| 2026-05-07 21:56 | 35.76314 | -112.04427 | 38218 ft | 447 kts | 243° |
| 2026-05-07 21:57 | 35.73282 | -112.11104 | 38221 ft | 447 kts | 243° |
| 2026-05-07 21:57 | 35.70202 | -112.17756 | 38220 ft | 447 kts | 242° |
| 2026-05-07 21:58 | 35.67063 | -112.24375 | 38223 ft | 448 kts | 242° |
| 2026-05-07 21:58 | 35.63926 | -112.30997 | 38223 ft | 448 kts | 242° |
| 2026-05-07 21:59 | 35.60798 | -112.37628 | 38216 ft | 448 kts | 242° |
| 2026-05-07 21:59 | 35.57693 | -112.44265 | 38218 ft | 448 kts | 242° |
| 2026-05-07 22:00 | 35.54599 | -112.50913 | 38222 ft | 449 kts | 242° |
| 2026-05-07 22:00 | 35.51498 | -112.57564 | 38215 ft | 449 kts | 242° |
| 2026-05-07 22:01 | 35.48396 | -112.64210 | 38209 ft | 449 kts | 242° |
| 2026-05-07 22:01 | 35.45302 | -112.70816 | 38212 ft | 449 kts | 242° |
| 2026-05-07 22:02 | 35.42175 | -112.77454 | 38201 ft | 450 kts | 242° |
| 2026-05-07 22:02 | 35.39044 | -112.84099 | 38192 ft | 450 kts | 242° |
| 2026-05-07 22:03 | 35.35911 | -112.90743 | 38188 ft | 450 kts | 242° |
| 2026-05-07 22:03 | 35.32769 | -112.97399 | 38178 ft | 451 kts | 242° |
| 2026-05-07 22:04 | 35.29617 | -113.04049 | 38170 ft | 451 kts | 241° |
| 2026-05-07 22:04 | 35.26456 | -113.10699 | 38132 ft | 451 kts | 242° |
| 2026-05-07 22:05 | 35.23314 | -113.17302 | 38120 ft | 452 kts | 241° |
| 2026-05-07 22:05 | 35.20157 | -113.23943 | 38105 ft | 452 kts | 241° |
| 2026-05-07 22:06 | 35.16987 | -113.30585 | 38095 ft | 453 kts | 241° |
| 2026-05-07 22:06 | 35.13807 | -113.37229 | 38075 ft | 453 kts | 241° |
| 2026-05-07 22:07 | 35.10625 | -113.43862 | 38063 ft | 453 kts | 241° |
| 2026-05-07 22:07 | 35.07441 | -113.50508 | 38062 ft | 454 kts | 241° |
| 2026-05-07 22:08 | 35.04246 | -113.57151 | 38061 ft | 454 kts | 241° |
| 2026-05-07 22:08 | 35.01046 | -113.63788 | 38058 ft | 454 kts | 241° |
| 2026-05-07 22:09 | 34.97838 | -113.70416 | 38060 ft | 454 kts | 241° |
| 2026-05-07 22:09 | 34.94636 | -113.77048 | 38051 ft | 454 kts | 241° |
| 2026-05-07 22:10 | 34.91454 | -113.83639 | 38042 ft | 454 kts | 241° |
| 2026-05-07 22:10 | 34.88229 | -113.90259 | 38037 ft | 454 kts | 241° |
| 2026-05-07 22:11 | 34.84976 | -113.96846 | 38027 ft | 454 kts | 240° |
| 2026-05-07 22:11 | 34.81628 | -114.03359 | 37964 ft | 453 kts | 239° |
| 2026-05-07 22:12 | 34.78239 | -114.09836 | 37955 ft | 454 kts | 239° |
| 2026-05-07 22:12 | 34.74856 | -114.16329 | 37945 ft | 454 kts | 239° |
| 2026-05-07 22:13 | 34.71494 | -114.22827 | 37935 ft | 454 kts | 239° |
| 2026-05-07 22:13 | 34.68126 | -114.29329 | 37924 ft | 454 kts | 239° |
| 2026-05-07 22:14 | 34.65317 | -114.34728 | 37917 ft | 454 kts | 239° |
| 2026-05-07 22:14 | 34.61604 | -114.40933 | 37908 ft | 456 kts | 230° |
| 2026-05-07 22:15 | 34.57419 | -114.46717 | 37904 ft | 456 kts | 230° |
| 2026-05-07 22:15 | 34.53234 | -114.52507 | 37902 ft | 456 kts | 230° |
| 2026-05-07 22:16 | 34.49047 | -114.58282 | 37904 ft | 456 kts | 230° |
| 2026-05-07 22:16 | 34.44884 | -114.64018 | 37905 ft | 456 kts | 230° |
| 2026-05-07 22:17 | 34.40694 | -114.69779 | 37901 ft | 456 kts | 230° |
| 2026-05-07 22:17 | 34.36495 | -114.75534 | 37905 ft | 456 kts | 230° |
| 2026-05-07 22:18 | 34.30203 | -114.84172 | 37917 ft | 456 kts | 230° |
| 2026-05-07 22:19 | 34.25993 | -114.89919 | 37924 ft | 457 kts | 230° |
| 2026-05-07 22:19 | 34.21776 | -114.95655 | 37930 ft | 457 kts | 230° |
| 2026-05-07 22:20 | 34.17562 | -115.01390 | 37931 ft | 457 kts | 230° |
| 2026-05-07 22:20 | 34.13342 | -115.07128 | 37934 ft | 457 kts | 230° |
| 2026-05-07 22:21 | 34.09129 | -115.12842 | 37937 ft | 457 kts | 230° |
| 2026-05-07 22:21 | 34.04902 | -115.18561 | 37936 ft | 457 kts | 229° |
| 2026-05-07 22:22 | 34.00672 | -115.24272 | 37937 ft | 457 kts | 229° |
| 2026-05-07 22:22 | 33.96431 | -115.30006 | 37595 ft | 464 kts | 230° |
| 2026-05-07 22:22 | 33.94286 | -115.32916 | 37027 ft | 464 kts | 230° |
| 2026-05-07 22:23 | 33.92153 | -115.35815 | 36500 ft | 461 kts | 230° |
| 2026-05-07 22:23 | 33.90033 | -115.38694 | 35950 ft | 459 kts | 230° |
| 2026-05-07 22:23 | 33.87914 | -115.41566 | 35405 ft | 458 kts | 230° |
| 2026-05-07 22:23 | 33.85803 | -115.44420 | 34854 ft | 456 kts | 230° |
| 2026-05-07 22:24 | 33.83692 | -115.47271 | 34290 ft | 455 kts | 230° |
| 2026-05-07 22:24 | 33.81610 | -115.50074 | 33738 ft | 455 kts | 230° |
| 2026-05-07 22:24 | 33.79504 | -115.52904 | 33192 ft | 454 kts | 230° |
| 2026-05-07 22:24 | 33.77402 | -115.55731 | 32634 ft | 453 kts | 230° |
| 2026-05-07 22:25 | 33.75306 | -115.58552 | 32077 ft | 451 kts | 230° |
| 2026-05-07 22:25 | 33.73218 | -115.61357 | 31545 ft | 449 kts | 230° |
| 2026-05-07 22:25 | 33.71141 | -115.64145 | 31032 ft | 446 kts | 230° |
| 2026-05-07 22:25 | 33.69078 | -115.66911 | 30516 ft | 443 kts | 230° |
| 2026-05-07 22:26 | 33.67021 | -115.69647 | 30029 ft | 440 kts | 230° |
| 2026-05-07 22:26 | 33.64966 | -115.72359 | 29525 ft | 437 kts | 229° |
| 2026-05-07 22:26 | 33.62926 | -115.75044 | 29071 ft | 433 kts | 230° |
| 2026-05-07 22:26 | 33.61077 | -115.77861 | 28567 ft | 428 kts | 237° |
| 2026-05-07 22:27 | 33.59387 | -115.80783 | 28106 ft | 424 kts | 238° |
| 2026-05-07 22:27 | 33.57720 | -115.83675 | 27656 ft | 420 kts | 237° |
| 2026-05-07 22:27 | 33.56067 | -115.86548 | 27178 ft | 416 kts | 238° |
| 2026-05-07 22:27 | 33.54451 | -115.89353 | 26722 ft | 412 kts | 237° |
| 2026-05-07 22:28 | 33.52825 | -115.92167 | 26244 ft | 409 kts | 237° |
| 2026-05-07 22:28 | 33.51210 | -115.94960 | 25774 ft | 406 kts | 237° |
| 2026-05-07 22:28 | 33.49605 | -115.97733 | 25291 ft | 404 kts | 237° |
| 2026-05-07 22:28 | 33.48009 | -116.00485 | 24794 ft | 402 kts | 237° |
| 2026-05-07 22:29 | 33.46421 | -116.03226 | 24282 ft | 400 kts | 237° |
| 2026-05-07 22:29 | 33.44839 | -116.05954 | 23790 ft | 397 kts | 237° |
| 2026-05-07 22:29 | 33.43265 | -116.08661 | 23316 ft | 395 kts | 237° |
| 2026-05-07 22:29 | 33.41699 | -116.11353 | 22832 ft | 393 kts | 237° |
| 2026-05-07 22:30 | 33.40140 | -116.14035 | 22349 ft | 392 kts | 237° |
| 2026-05-07 22:30 | 33.38585 | -116.16701 | 21871 ft | 390 kts | 237° |
| 2026-05-07 22:30 | 33.37036 | -116.19359 | 21409 ft | 388 kts | 237° |
| 2026-05-07 22:30 | 33.35494 | -116.22002 | 20944 ft | 387 kts | 236° |
| 2026-05-07 22:31 | 33.33719 | -116.24417 | 20449 ft | 387 kts | 222° |
| 2026-05-07 22:31 | 33.31539 | -116.26289 | 19984 ft | 386 kts | 208° |
| 2026-05-07 22:31 | 33.29141 | -116.27710 | 19536 ft | 384 kts | 205° |
| 2026-05-07 22:31 | 33.26747 | -116.29104 | 19050 ft | 382 kts | 205° |
| 2026-05-07 22:32 | 33.24360 | -116.30497 | 18574 ft | 381 kts | 205° |
| 2026-05-07 22:32 | 33.21984 | -116.31889 | 18102 ft | 380 kts | 206° |
| 2026-05-07 22:32 | 33.19618 | -116.33278 | 17612 ft | 379 kts | 205° |
| 2026-05-07 22:32 | 33.17264 | -116.34657 | 17246 ft | 374 kts | 206° |
| 2026-05-07 22:33 | 33.14924 | -116.36027 | 16792 ft | 373 kts | 206° |
| 2026-05-07 22:33 | 33.12609 | -116.37383 | 16407 ft | 369 kts | 206° |
| 2026-05-07 22:33 | 33.10326 | -116.38718 | 15791 ft | 362 kts | 206° |
| 2026-05-07 22:33 | 33.08078 | -116.40028 | 15329 ft | 359 kts | 206° |
| 2026-05-07 22:34 | 33.05836 | -116.41335 | 14864 ft | 358 kts | 206° |
| 2026-05-07 22:34 | 33.03601 | -116.42639 | 14448 ft | 357 kts | 206° |
| 2026-05-07 22:34 | 33.01387 | -116.43939 | 14078 ft | 353 kts | 208° |
| 2026-05-07 22:34 | 32.99391 | -116.45596 | 13814 ft | 346 kts | 221° |
| 2026-05-07 22:35 | 32.97624 | -116.47406 | 13534 ft | 333 kts | 221° |
| 2026-05-07 22:35 | 32.95898 | -116.49154 | 12954 ft | 328 kts | 221° |
| 2026-05-07 22:35 | 32.94168 | -116.50893 | 12454 ft | 324 kts | 221° |
| 2026-05-07 22:35 | 32.92455 | -116.52609 | 12057 ft | 324 kts | 221° |
| 2026-05-07 22:36 | 32.90756 | -116.54313 | 11619 ft | 316 kts | 221° |
| 2026-05-07 22:36 | 32.89090 | -116.55986 | 11181 ft | 312 kts | 221° |
| 2026-05-07 22:36 | 32.87440 | -116.57646 | 10810 ft | 310 kts | 221° |
| 2026-05-07 22:36 | 32.85796 | -116.59303 | 10428 ft | 310 kts | 221° |
| 2026-05-07 22:37 | 32.84156 | -116.60952 | 10019 ft | 306 kts | 221° |
| 2026-05-07 22:37 | 32.82542 | -116.62574 | 9636 ft | 303 kts | 221° |
| 2026-05-07 22:37 | 32.80937 | -116.64190 | 9271 ft | 301 kts | 221° |
| 2026-05-07 22:37 | 32.79352 | -116.65790 | 8903 ft | 298 kts | 221° |
| 2026-05-07 22:38 | 32.77819 | -116.67429 | 8511 ft | 295 kts | 229° |
| 2026-05-07 22:38 | 32.76630 | -116.69386 | 8142 ft | 291 kts | 242° |
| 2026-05-07 22:38 | 32.75644 | -116.71484 | 7782 ft | 289 kts | 242° |
| 2026-05-07 22:38 | 32.74664 | -116.73552 | 7434 ft | 286 kts | 242° |
| 2026-05-07 22:39 | 32.73692 | -116.75600 | 7052 ft | 281 kts | 242° |
| 2026-05-07 22:39 | 32.72755 | -116.77573 | 6706 ft | 270 kts | 242° |
| 2026-05-07 22:39 | 32.71839 | -116.79502 | 6371 ft | 267 kts | 242° |
| 2026-05-07 22:39 | 32.70945 | -116.81387 | 6045 ft | 264 kts | 243° |
| 2026-05-07 22:40 | 32.70256 | -116.83373 | 5733 ft | 257 kts | 251° |
| 2026-05-07 22:40 | 32.69647 | -116.85353 | 5440 ft | 253 kts | 251° |
| 2026-05-07 22:40 | 32.69045 | -116.87295 | 5151 ft | 249 kts | 251° |
| 2026-05-07 22:40 | 32.68456 | -116.89201 | 4987 ft | 233 kts | 251° |
| 2026-05-07 22:41 | 32.67923 | -116.90988 | 4884 ft | 232 kts | 252° |
| 2026-05-07 22:41 | 32.67435 | -116.92819 | 4388 ft | 230 kts | 262° |
| 2026-05-07 22:41 | 32.67455 | -116.94688 | 4085 ft | 225 kts | 284° |
| 2026-05-07 22:41 | 32.67884 | -116.96450 | 3818 ft | 223 kts | 287° |
| 2026-05-07 22:42 | 32.68317 | -116.98202 | 3541 ft | 218 kts | 287° |
| 2026-05-07 22:42 | 32.68736 | -116.99918 | 3295 ft | 213 kts | 286° |
| 2026-05-07 22:42 | 32.69135 | -117.01560 | 3057 ft | 205 kts | 286° |
| 2026-05-07 22:42 | 32.69516 | -117.03131 | 2832 ft | 199 kts | 286° |
| 2026-05-07 22:43 | 32.69875 | -117.04623 | 2624 ft | 177 kts | 286° |
| 2026-05-07 22:43 | 32.70203 | -117.05967 | 2382 ft | 164 kts | 286° |
| 2026-05-07 22:43 | 32.70517 | -117.07253 | 2160 ft | 157 kts | 287° |
| 2026-05-07 22:43 | 32.70813 | -117.08468 | 1962 ft | 150 kts | 287° |
| 2026-05-07 22:44 | 32.71095 | -117.09634 | 1731 ft | 144 kts | 286° |
| 2026-05-07 22:44 | 32.71362 | -117.10743 | 1513 ft | 137 kts | 287° |
| 2026-05-07 22:44 | 32.71622 | -117.11808 | 1299 ft | 133 kts | 287° |
| 2026-05-07 22:44 | 32.71874 | -117.12838 | 1090 ft | 132 kts | 286° |
| 2026-05-07 22:45 | 32.72127 | -117.13877 | 890 ft | 131 kts | 287° |
| 2026-05-07 22:45 | 32.72380 | -117.14912 | 683 ft | 130 kts | 287° |
| 2026-05-07 22:45 | 32.72630 | -117.15942 | 501 ft | 131 kts | 286° |
| 2026-05-07 22:45 | 32.72885 | -117.16984 | 291 ft | 132 kts | 282° |
| 2026-05-07 22:46 | 32.73133 | -117.18017 | 66 ft | 129 kts | 286° |
| 2026-05-07 22:46 | 32.73344 | -117.18926 | 22 ft | 82 kts | 286° |
| 2026-05-07 22:46 | 32.73461 | -117.19412 | 23 ft | 44 kts | 285° |
| 2026-05-07 22:46 | 32.73532 | -117.19713 | 27 ft | 25 kts | 278° |
| 2026-05-07 22:47 | 32.73513 | -117.19827 | 27 ft | 6 kts | 246° |
| 2026-05-07 22:47 | 32.73465 | -117.19827 | 25 ft | 14 kts | 134° |
| 2026-05-07 22:47 | 32.73438 | -117.19725 | 23 ft | 13 kts | 106° |
| 2026-05-07 22:47 | 32.73414 | -117.19627 | 25 ft | 12 kts | 106° |
| 2026-05-07 22:48 | 32.73393 | -117.19541 | 24 ft | 10 kts | 106° |
| 2026-05-07 22:48 | 32.73376 | -117.19471 | 24 ft | 8 kts | 106° |
| 2026-05-07 22:48 | 32.73339 | -117.19430 | 23 ft | 8 kts | 164° |
| 2026-05-07 22:48 | 32.73289 | -117.19443 | 22 ft | 8 kts | 205° |